Time;durP1;ratioP1;P1;durP2;ratioP2;P2;SDS_P1;SDS_P2;PMS_P1;PMS_P2;Temp;Humidity;BMP_temperature;BMP_pressure;BME280_temperature;BME280_humidity;BME280_pressure;Samples;Min_cycle;Max_cycle;Signal;HPM_P1;HPM_P2
2023/06/11 00:00:11;;;;;;;7.72;5.43;;;;;;;;;;4916907;29;20032;-81
2023/06/11 00:02:39;;;;;;;8.65;5.25;;;;;;;;;;4923412;29;20024;-81
2023/06/11 00:05:09;;;;;;;6.65;5.55;;;;;;;;;;4921837;29;20128;-82
2023/06/11 00:07:39;;;;;;;6.90;5.60;;;;;;;;;;4921301;29;20083;-81
2023/06/11 00:10:05;;;;;;;6.78;5.13;;;;;;;;;;4918661;29;20049;-80
2023/06/11 00:12:40;;;;;;;6.65;5.40;;;;;;;;;;4924448;29;20056;-81
2023/06/11 00:15:08;;;;;;;7.78;5.10;;;;;;;;;;4920444;29;20024;-80
2023/06/11 00:17:34;;;;;;;6.35;5.10;;;;;;;;;;4913244;29;20048;-80
2023/06/11 00:20:11;;;;;;;7.60;5.45;;;;;;;;;;4922320;29;20031;-79
2023/06/11 00:22:37;;;;;;;6.85;5.63;;;;;;;;;;4919058;29;20031;-78
2023/06/11 00:25:04;;;;;;;6.72;4.93;;;;;;;;;;4920274;29;20052;-80
2023/06/11 00:27:30;;;;;;;7.35;5.18;;;;;;;;;;4906907;29;20539;-80
2023/06/11 00:29:57;;;;;;;6.38;5.25;;;;;;;;;;4917825;29;20115;-80
2023/06/11 00:32:23;;;;;;;6.78;5.30;;;;;;;;;;4917948;29;20036;-83
2023/06/11 00:34:49;;;;;;;8.77;5.38;;;;;;;;;;4921670;29;20106;-79
2023/06/11 00:37:16;;;;;;;7.30;5.45;;;;;;;;;;4923200;29;20051;-80
2023/06/11 00:39:42;;;;;;;6.68;5.55;;;;;;;;;;4920806;29;20388;-81
2023/06/11 00:42:10;;;;;;;6.60;4.85;;;;;;;;;;4922114;29;20448;-80
2023/06/11 00:44:40;;;;;;;6.82;5.15;;;;;;;;;;4922176;29;20119;-80
2023/06/11 00:47:08;;;;;;;7.75;5.50;;;;;;;;;;4920754;29;20032;-80
2023/06/11 00:49:34;;;;;;;6.97;5.53;;;;;;;;;;4921722;29;20095;-80
2023/06/11 00:52:03;;;;;;;6.72;5.07;;;;;;;;;;4926220;29;20095;-80
2023/06/11 00:54:29;;;;;;;8.23;5.93;;;;;;;;;;4920481;29;20028;-79
2023/06/11 00:56:56;;;;;;;6.60;5.50;;;;;;;;;;4924305;29;20052;-80
2023/06/11 00:59:22;;;;;;;7.85;5.10;;;;;;;;;;4914774;29;20036;-82
2023/06/11 01:01:56;;;;;;;7.25;6.13;;;;;;;;;;4916670;29;20060;-80
2023/06/11 01:04:23;;;;;;;7.50;5.85;;;;;;;;;;4917428;29;20037;-80
2023/06/11 01:06:52;;;;;;;7.30;5.82;;;;;;;;;;4937041;29;20028;-80
2023/06/11 01:09:22;;;;;;;6.50;5.70;;;;;;;;;;4919296;29;20080;-80
2023/06/11 01:11:54;;;;;;;;;;;21.70;91.40;;;;;;4918536;29;20028;-80
2023/06/11 01:14:20;;;;;;;6.03;5.20;;;;;;;;;;4915734;29;19918;-79
2023/06/11 01:16:52;;;;;;;8.65;5.32;;;;;;;;;;4917602;29;20024;-80
2023/06/11 01:19:22;;;;;;;7.85;5.60;;;;;;;;;;4915720;29;20028;-82
2023/06/11 01:21:53;;;;;;;5.90;5.30;;;;;;;;;;4916612;29;20033;-81
2023/06/11 01:24:29;;;;;;;8.60;5.60;;;;;;;;;;4931190;29;20036;-82
2023/06/11 01:27:13;;;;;;;8.18;5.35;;;;;;;;;;4919481;29;20032;-81
2023/06/11 01:29:45;;;;;;;6.65;5.00;;;;;;;;;;4923418;29;20395;-81
2023/06/11 01:32:12;;;;;;;9.27;5.68;;;;;;;;;;4921114;29;20099;-81
2023/06/11 01:34:42;;;;;;;5.85;5.25;;;;;;;;;;4921268;29;20063;-81
2023/06/11 01:37:12;;;;;;;;;;;21.30;93.20;;;;;;4925051;29;20024;-80
2023/06/11 01:39:47;;;;;;;7.75;5.55;;;;;;;;;;4927827;29;19950;-81
2023/06/11 01:42:13;;;;;;;6.60;5.47;;;;;;;;;;4920662;29;20543;-79
2023/06/11 01:44:42;;;;;;;7.47;5.68;;;;;;;;;;4928205;29;20040;-81
2023/06/11 01:47:08;;;;;;;5.90;5.30;;;;;;;;;;4925189;29;20048;-81
2023/06/11 01:49:40;;;;;;;7.78;5.72;;;;;;;;;;4927094;29;20043;-80
2023/06/11 01:52:06;;;;;;;7.30;5.55;;;;;;;;;;4918101;29;20039;-79
2023/06/11 01:54:33;;;;;;;8.23;5.43;;;;;;;;;;4932740;29;20061;-84
2023/06/11 01:56:59;;;;;;;7.05;5.68;;;;;;;;;;4914425;29;20021;-81
2023/06/11 01:59:25;;;;;;;6.45;5.75;;;;;;;;;;4911460;29;20020;-81
2023/06/11 02:01:53;;;;;;;6.47;5.35;;;;;;;;;;4931652;29;20080;-82
2023/06/11 02:04:21;;;;;;;5.53;5.03;;;;;;;;;;4917584;29;20104;-80
2023/06/11 02:06:48;;;;;;;9.13;5.32;;;;;;;;;;4922548;29;20055;-80
2023/06/11 02:09:15;;;;;;;6.75;5.57;;;;;;;;;;4916946;29;20038;-81
2023/06/11 02:11:41;;;;;;;6.10;5.40;;;;;;;;;;4914070;29;20096;-80
2023/06/11 02:14:12;;;;;;;6.90;5.47;;;;;;;;;;4914388;29;20055;-79
2023/06/11 02:16:41;;;;;;;7.55;6.20;;;;;;;;;;4930960;29;20033;-80
2023/06/11 02:19:07;;;;;;;7.07;6.03;;;;;;;;;;4918946;29;20024;-80
2023/06/11 02:21:33;;;;;;;8.20;5.90;;;;;;;;;;4916497;29;20032;-81
2023/06/11 02:24:00;;;;;;;7.72;6.03;;;;;;;;;;4916153;29;20025;-79
2023/06/11 02:26:26;;;;;;;8.18;5.53;;;;;;;;;;4916827;29;20039;-83
2023/06/11 02:28:52;;;;;;;7.45;5.45;;;;;;;;;;4916751;29;20032;-80
2023/06/11 02:31:19;;;;;;;7.35;5.75;;;;;;;;;;4917953;29;20072;-79
2023/06/11 02:33:47;;;;;;;8.63;5.80;;;;;;;;;;4921012;29;20568;-80
2023/06/11 02:36:13;;;;;;;8.68;6.25;;;;;;;;;;4915863;29;20075;-81
2023/06/11 02:38:39;;;;;;;8.48;6.28;;;;;;;;;;4918187;29;20130;-81
2023/06/11 02:41:05;;;;;;;6.65;5.55;;;;;;;;;;4908693;29;20024;-79
2023/06/11 02:43:32;;;;;;;7.13;5.57;;;;;;;;;;4914470;29;20520;-79
2023/06/11 02:45:58;;;;;;;7.60;6.25;;;;;;;;;;4913115;29;20020;-80
2023/06/11 02:48:27;;;;;;;6.60;5.70;;;;;;;;;;4915325;29;20111;-82
2023/06/11 02:50:53;;;;;;;11.07;6.15;;;;;;;;;;4933615;29;20447;-82
2023/06/11 02:53:20;;;;;;;7.45;5.78;;;;;;;;;;4920320;29;20055;-80
2023/06/11 02:55:46;;;;;;;7.15;5.80;;;;;;;;;;4918877;29;20070;-80
2023/06/11 02:58:12;;;;;;;8.88;6.13;;;;;;;;;;4918133;29;20135;-81
2023/06/11 03:00:39;;;;;;;7.05;6.32;;;;;;;;;;4931724;29;20029;-80
2023/06/11 03:03:05;;;;;;;8.40;6.90;;;;;;;;;;4921465;29;20035;-80
2023/06/11 03:05:31;;;;;;;7.60;6.50;;;;;;;;;;4923299;29;20130;-80
2023/06/11 03:07:57;;;;;;;7.13;6.40;;;;;;;;;;4928198;29;20122;-80
2023/06/11 03:10:27;;;;;;;7.03;6.32;;;;;;;;;;4922310;29;20051;-80
2023/06/11 03:12:57;;;;;;;9.48;6.30;;;;;;;;;;4922063;29;20036;-80
2023/06/11 03:15:25;;;;;;;8.38;6.00;;;;;;;;;;4910584;29;20050;-81
2023/06/11 03:17:53;;;;;;;9.82;6.85;;;;;;;;;;4921457;29;20040;-80
2023/06/11 03:20:22;;;;;;;11.85;7.05;;;;;;;;;;4921102;29;20067;-80
2023/06/11 03:22:54;;;;;;;8.77;6.30;;;;;;;;;;4921354;29;20027;-83
2023/06/11 03:25:21;;;;;;;15.00;7.15;;;;;;;;;;4915925;29;20107;-80
2023/06/11 03:27:49;;;;;;;9.38;6.72;;;;;;;;;;4916659;29;20024;-81
2023/06/11 03:30:16;;;;;;;8.27;6.78;;;;;;;;;;4929673;29;20059;-80
2023/06/11 03:32:42;;;;;;;8.40;6.50;;;;;;;;;;4920870;29;20047;-80
2023/06/11 03:35:08;;;;;;;8.05;6.63;;;;;;;;;;4915304;29;20041;-81
2023/06/11 03:37:34;;;;;;;8.00;6.85;;;;;;;;;;4931436;29;20123;-81
2023/06/11 03:40:21;;;;;;;7.43;5.90;;;;;;;;;;4931324;29;20029;-80
2023/06/11 03:42:47;;;;;;;9.40;6.70;;;;;;;;;;4910032;29;20072;-84
2023/06/11 03:45:13;;;;;;;7.53;6.68;;;;;;;;;;4921610;29;20071;-82
2023/06/11 03:47:42;;;;;;;8.60;6.75;;;;;;;;;;4920884;29;20032;-81
2023/06/11 03:50:08;;;;;;;9.00;7.00;;;;;;;;;;4918012;29;20552;-80
2023/06/11 03:52:37;;;;;;;8.18;6.95;;;;;;;;;;4922180;29;20838;-80
2023/06/11 03:55:04;;;;;;;8.07;7.03;;;;;;;;;;4918123;29;20058;-80
2023/06/11 03:57:30;;;;;;;7.45;6.35;;;;;;;;;;4923283;29;20028;-79
2023/06/11 03:59:57;;;;;;;9.05;6.72;;;;;;;;;;4926783;28;20039;-80
2023/06/11 04:02:23;;;;;;;7.57;6.70;;;;;;;;;;4915394;29;20088;-80
2023/06/11 04:04:58;;;;;;;9.50;7.00;;;;;;;;;;4933401;29;20117;-80
2023/06/11 04:07:27;;;;;;;7.88;6.78;;;;;;;;;;4916178;29;20511;-80
2023/06/11 04:09:53;;;;;;;7.78;6.40;;;;;;;;;;4918221;29;20072;-79
2023/06/11 04:12:19;;;;;;;8.68;6.82;;;;;;;;;;4911382;29;20480;-79
2023/06/11 04:14:45;;;;;;;8.52;6.60;;;;;;;;;;4910416;29;20051;-80
2023/06/11 04:17:11;;;;;;;8.15;5.95;;;;;;;;;;4928840;29;20031;-80
2023/06/11 04:19:37;;;;;;;8.40;6.78;;;;;;;;;;4919725;29;20024;-79
2023/06/11 04:22:04;;;;;;;10.13;6.80;;;;;;;;;;4931336;29;20036;-80
2023/06/11 04:24:30;;;;;;;8.88;6.88;;;;;;;;;;4916133;29;20033;-81
2023/06/11 04:26:59;;;;;;;10.35;6.97;;;;;;;;;;4901733;29;20064;-80
2023/06/11 04:29:36;;;;;;;7.55;6.63;;;;;;;;;;4915375;29;20036;-80
2023/06/11 04:32:34;;;;;;;10.43;7.10;;;;;;;;;;4917726;29;20055;-80
2023/06/11 04:35:02;;;;;;;8.88;6.40;;;;;;;;;;4925079;29;20020;-81
2023/06/11 04:37:29;;;;;;;8.15;6.35;;;;;;;;;;4942311;29;20052;-84
2023/06/11 04:40:00;;;;;;;8.10;6.15;;;;;;;;;;4929106;29;20168;-81
2023/06/11 04:42:26;;;;;;;8.30;6.32;;;;;;;;;;4933420;29;20035;-82
2023/06/11 04:44:52;;;;;;;7.78;6.13;;;;;;;;;;4922555;29;20032;-81
2023/06/11 04:47:22;;;;;;;7.00;6.00;;;;;;;;;;4919806;29;20508;-82
2023/06/11 04:49:52;;;;;;;7.82;5.65;;;;;;;;;;4920415;29;20447;-82
2023/06/11 04:52:18;;;;;;;10.77;6.50;;;;;;;;;;4919941;29;20396;-81
2023/06/11 04:54:55;;;;;;;9.52;6.03;;;;;;;;;;4916713;29;20017;-82
2023/06/11 04:57:23;;;;;;;6.85;5.95;;;;;;;;;;4914864;29;20032;-81
2023/06/11 04:59:57;;;;;;;8.02;6.43;;;;;;;;;;4923619;29;20031;-82
2023/06/11 05:02:26;;;;;;;7.55;6.05;;;;;;;;;;4912422;29;20032;-82
2023/06/11 05:04:53;;;;;;;6.73;5.97;;;;;;;;;;4922726;29;20035;-82
2023/06/11 05:07:20;;;;;;;6.90;6.20;;;;;;;;;;4916693;29;20044;-81
2023/06/11 05:09:47;;;;;;;7.05;5.88;;;;;;;;;;4921169;29;20027;-82
2023/06/11 05:12:13;;;;;;;7.93;6.30;;;;;;;;;;4922274;29;20063;-80
2023/06/11 05:14:44;;;;;;;7.65;6.20;;;;;;;;;;4918300;29;20053;-83
2023/06/11 05:17:10;;;;;;;8.52;6.18;;;;;;;;;;4932509;29;20024;-81
2023/06/11 05:19:41;;;;;;;6.95;5.90;;;;;;;;;;4916513;29;20522;-82
2023/06/11 05:22:07;;;;;;;6.85;5.95;;;;;;;;;;4913475;29;20107;-80
2023/06/11 05:24:41;;;;;;;7.95;5.50;;;;;;;;;;4917660;29;20028;-81
2023/06/11 05:27:09;;;;;;;6.95;5.70;;;;;;;;;;4917139;29;20036;-81
2023/06/11 05:29:38;;;;;;;5.60;5.00;;;;;;;;;;4923871;29;20044;-82
2023/06/11 05:32:14;;;;;;;7.85;5.30;;;;;;;;;;4924866;29;20440;-79
2023/06/11 05:35:07;;;;;;;7.05;5.45;;;;;;;;;;4924844;29;20039;-81
2023/06/11 05:37:33;;;;;;;6.18;5.22;;;;;;;;;;4940661;29;20060;-81
2023/06/11 05:40:03;;;;;;;5.85;5.25;;;;;;;;;;4929680;29;20027;-81
2023/06/11 05:42:31;;;;;;;8.32;5.72;;;;;;;;;;4931930;29;20044;-81
2023/06/11 05:45:19;;;;;;;7.40;5.22;;;;;;;;;;4938849;29;20032;-83
2023/06/11 05:47:45;;;;;;;6.88;5.20;;;;;;;;;;4931101;29;20488;-81
2023/06/11 05:50:14;;;;;;;7.65;5.43;;;;;;;;;;4937469;28;20029;-82
2023/06/11 05:52:46;;;;;;;6.25;5.45;;;;;;;;;;4940469;29;20009;-80
2023/06/11 05:55:13;;;;;;;6.70;5.88;;;;;;;;;;4940181;29;20377;-80
2023/06/11 05:57:39;;;;;;;8.68;5.65;;;;;;;;;;4925274;29;20028;-81
2023/06/11 06:00:12;;;;;;;6.40;5.20;;;;;;;;;;4920805;29;20558;-81
2023/06/11 06:02:43;;;;;;;5.50;4.88;;;;;;;;;;4923755;29;20036;-81
2023/06/11 06:05:32;;;;;;;6.20;5.00;;;;;;;;;;4917772;29;20024;-81
2023/06/11 06:08:02;;;;;;;8.52;5.32;;;;;;;;;;4922356;29;20484;-81
2023/06/11 06:10:33;;;;;;;7.20;5.50;;;;;;;;;;4922029;29;20131;-80
2023/06/11 06:12:59;;;;;;;5.85;4.97;;;;;;;;;;4929966;29;20039;-79
2023/06/11 06:15:26;;;;;;;6.47;5.25;;;;;;;;;;4913418;29;20078;-80
2023/06/11 06:17:55;;;;;;;8.63;5.43;;;;;;;;;;4919897;29;20047;-82
2023/06/11 06:20:24;;;;;;;6.35;5.00;;;;;;;;;;4923175;29;20455;-81
2023/06/11 06:22:53;;;;;;;7.97;5.43;;;;;;;;;;4922902;29;20079;-83
2023/06/11 06:25:25;;;;;;;6.22;5.40;;;;;;;;;;4911811;29;20047;-81
2023/06/11 06:27:51;;;;;;;6.13;5.18;;;;;;;;;;4929853;29;20033;-80
2023/06/11 06:30:18;;;;;;;8.77;5.10;;;;;;;;;;4921337;29;20119;-80
2023/06/11 06:32:44;;;;;;;6.55;5.22;;;;;;;;;;4941358;29;20036;-81
2023/06/11 06:35:13;;;;;;;5.80;4.93;;;;;;;;;;4917459;29;20044;-82
2023/06/11 06:37:42;;;;;;;5.75;4.60;;;;;;;;;;4913243;29;20024;-81
2023/06/11 06:40:08;;;;;;;7.83;5.10;;;;;;;;;;4922464;29;20028;-82
2023/06/11 06:42:34;;;;;;;6.45;4.97;;;;;;;;;;4923280;29;20039;-82
2023/06/11 06:45:03;;;;;;;6.35;4.63;;;;;;;;;;4929863;29;20024;-81
2023/06/11 06:47:29;;;;;;;5.70;4.37;;;;;;;;;;4923580;29;20845;-83
2023/06/11 06:49:55;;;;;;;5.50;4.63;;;;;;;;;;4918307;29;20622;-83
2023/06/11 06:52:22;;;;;;;6.72;4.80;;;;;;;;;;4920525;29;20032;-82
2023/06/11 06:54:52;;;;;;;8.18;4.55;;;;;;;;;;4937347;29;20028;-82
2023/06/11 06:57:26;;;;;;;5.60;4.03;;;;;;;;;;4916743;29;20028;-83
2023/06/11 06:59:55;;;;;;;5.25;4.60;;;;;;;;;;4923542;29;20562;-80
2023/06/11 07:02:21;;;;;;;5.73;4.53;;;;;;;;;;4924965;29;20040;-80
2023/06/11 07:04:51;;;;;;;6.90;4.85;;;;;;;;;;4920436;29;20280;-79
2023/06/11 07:07:17;;;;;;;;;;;23.90;94.10;;;;;;4926141;29;20119;-80
2023/06/11 07:09:47;;;;;;;5.43;4.10;;;;;;;;;;4921024;29;19943;-80
2023/06/11 07:12:18;;;;;;;5.43;4.47;;;;;;;;;;4916466;29;20035;-82
2023/06/11 07:14:48;;;;;;;5.88;3.88;;;;;;;;;;4917662;29;20032;-80
2023/06/11 07:17:18;;;;;;;6.43;3.97;;;;;;;;;;4926649;29;20096;-80
2023/06/11 07:19:46;;;;;;;5.57;4.22;;;;;;;;;;4916517;29;20119;-80
2023/06/11 07:22:20;;;;;;;5.70;4.63;;;;;;;;;;4917141;29;20029;-80
2023/06/11 07:24:47;;;;;;;5.75;4.60;;;;;;;;;;4922415;29;20091;-82
2023/06/11 07:27:16;;;;;;;4.88;4.00;;;;;;;;;;4920388;29;20033;-82
2023/06/11 07:29:45;;;;;;;4.60;3.92;;;;;;;;;;4919972;29;20040;-81
2023/06/11 07:32:14;;;;;;;4.73;3.77;;;;;;;;;;4936254;29;20114;-80
2023/06/11 07:34:43;;;;;;;5.15;4.07;;;;;;;;;;4927887;29;20497;-79
2023/06/11 07:37:09;;;;;;;5.28;4.22;;;;;;;;;;4918786;29;20036;-79
2023/06/11 07:39:38;;;;;;;5.43;4.32;;;;;;;;;;4921005;29;20028;-82
2023/06/11 07:42:09;;;;;;;6.30;4.03;;;;;;;;;;4910436;29;20029;-80
2023/06/11 07:44:35;;;;;;;5.38;4.03;;;;;;;;;;4904322;29;20098;-83
2023/06/11 07:47:01;;;;;;;5.03;4.35;;;;;;;;;;4916679;29;20100;-81
2023/06/11 07:49:27;;;;;;;5.45;4.35;;;;;;;;;;4918707;29;20036;-80
2023/06/11 07:52:06;;;;;;;6.90;4.25;;;;;;;;;;4927257;29;20067;-82
2023/06/11 07:54:39;;;;;;;5.60;4.20;;;;;;;;;;4910936;29;20028;-82
2023/06/11 07:57:06;;;;;;;6.35;4.38;;;;;;;;;;4911814;29;20026;-81
2023/06/11 07:59:36;;;;;;;5.70;4.00;;;;;;;;;;4911382;29;20036;-81
2023/06/11 08:02:10;;;;;;;4.80;4.13;;;;;;;;;;4921087;29;20178;-80
2023/06/11 08:04:39;;;;;;;5.80;4.45;;;;;;;;;;4914686;29;20059;-81
2023/06/11 08:07:06;;;;;;;7.03;4.40;;;;;;;;;;4922824;29;20035;-82
2023/06/11 14:53:12;;;;;;;5.13;3.40;;;;;;;;;;4888555;27;20045;-85
2023/06/11 14:55:41;;;;;;;5.47;3.95;;;;;;;;;;4894944;29;20061;-85
2023/06/11 14:58:07;;;;;;;5.45;3.70;;;;;;;;;;4891788;29;20373;-83
2023/06/11 15:00:33;;;;;;;4.80;3.38;;;;;;;;;;4889646;29;20033;-84
2023/06/11 15:02:59;;;;;;;4.88;3.40;;;;;;;;;;4891783;29;20530;-83
2023/06/11 15:05:25;;;;;;;5.95;3.50;;;;;;;;;;4890475;29;20037;-84
2023/06/11 15:07:51;;;;;;;4.97;3.28;;;;;;;;;;4888263;29;20123;-84
2023/06/11 15:10:20;;;;;;;5.68;3.72;;;;;;;;;;4886392;29;20068;-86
2023/06/11 15:12:46;;;;;;;7.07;3.38;;;;;;;;;;4891922;29;20112;-85
2023/06/11 15:15:12;;;;;;;5.65;3.50;;;;;;;;;;4891200;29;20029;-84
2023/06/11 15:17:38;;;;;;;5.60;3.40;;;;;;;;;;4887207;29;20024;-85
2023/06/11 15:20:04;;;;;;;6.03;3.38;;;;;;;;;;4891826;29;20033;-84
2023/06/11 15:22:31;;;;;;;7.43;4.03;;;;;;;;;;4886986;29;20041;-84
2023/06/11 15:24:57;;;;;;;5.43;3.90;;;;;;;;;;4892635;29;20033;-85
2023/06/11 15:27:24;;;;;;;5.53;3.83;;;;;;;;;;4891053;29;20043;-84
2023/06/11 15:29:50;;;;;;;6.47;3.85;;;;;;;;;;4881124;29;20040;-84
2023/06/11 15:32:19;;;;;;;7.63;4.85;;;;;;;;;;4886272;29;20120;-84
2023/06/11 15:34:45;;;;;;;10.43;4.22;;;;;;;;;;4880128;29;20033;-83
2023/06/11 15:37:11;;;;;;;5.32;3.90;;;;;;;;;;4880398;29;20029;-85
2023/06/11 15:39:37;;;;;;;5.97;3.80;;;;;;;;;;4888879;29;20029;-83
2023/06/11 15:42:03;;;;;;;5.65;3.88;;;;;;;;;;4889665;29;20198;-84
2023/06/11 15:44:29;;;;;;;6.05;4.07;;;;;;;;;;4886551;29;20032;-82
2023/06/11 15:46:55;;;;;;;8.02;4.70;;;;;;;;;;4882912;29;20029;-81
2023/06/11 15:49:21;;;;;;;4.38;3.67;;;;;;;;;;4888116;29;20029;-84
2023/06/11 15:51:47;;;;;;;4.78;3.80;;;;;;;;;;4884757;29;20040;-83
2023/06/11 15:54:13;;;;;;;5.20;3.58;;;;;;;;;;4890140;29;20077;-82
2023/06/11 15:56:46;;;;;;;7.78;4.18;;;;;;;;;;4886471;29;20045;-82
2023/06/11 15:59:12;;;;;;;6.13;4.10;;;;;;;;;;4890868;29;20040;-83
2023/06/11 16:01:42;;;;;;;9.80;4.30;;;;;;;;;;4884753;29;20100;-83
2023/06/11 16:04:12;;;;;;;6.72;3.67;;;;;;;;;;4888581;29;20029;-84
2023/06/11 16:06:38;;;;;;;5.88;3.90;;;;;;;;;;4885530;29;20089;-83
2023/06/11 16:09:04;;;;;;;7.25;3.83;;;;;;;;;;4885483;29;20197;-86
2023/06/11 16:11:31;;;;;;;5.53;3.85;;;;;;;;;;4878794;29;20048;-84
2023/06/11 16:13:57;;;;;;;5.97;4.10;;;;;;;;;;4878489;29;20509;-84
2023/06/11 16:16:23;;;;;;;6.72;4.18;;;;;;;;;;4884371;29;20037;-83
2023/06/11 16:18:55;;;;;;;8.00;4.13;;;;;;;;;;4874963;29;20089;-84
2023/06/11 16:21:21;;;;;;;7.57;4.25;;;;;;;;;;4887970;29;20033;-83
2023/06/11 16:23:47;;;;;;;5.25;3.45;;;;;;;;;;4892211;29;20499;-83
2023/06/11 16:26:13;;;;;;;5.88;3.88;;;;;;;;;;4886884;29;20043;-82
2023/06/11 16:28:39;;;;;;;6.88;4.15;;;;;;;;;;4893428;29;20048;-83
2023/06/11 16:31:05;;;;;;;9.55;4.05;;;;;;;;;;4896959;29;20021;-84
2023/06/11 16:33:31;;;;;;;8.27;4.45;;;;;;;;;;4900886;29;20041;-83
2023/06/11 16:36:20;;;;;;;9.60;4.15;;;;;;;;;;4893094;29;20010;-84
2023/06/11 16:39:13;;;;;;;4.95;3.83;;;;;;;;;;4889008;29;20045;-83
2023/06/11 16:41:46;;;;;;;7.22;4.05;;;;;;;;;;4881916;29;20052;-85
2023/06/11 16:44:15;;;;;;;5.45;4.00;;;;;;;;;;4887391;29;20048;-86
2023/06/11 16:47:09;;;;;;;6.10;4.00;;;;;;;;;;4887392;29;20064;-86
2023/06/11 16:49:57;;;;;;;;;;;;;;;;;;;;;
2023/06/11 16:52:27;;;;;;;5.85;4.13;;;;;;;;;;4884986;29;20041;-84
2023/06/11 16:55:27;;;;;;;10.80;4.20;;;;;;;;;;4878665;29;20089;-85
2023/06/11 16:58:02;;;;;;;9.15;4.20;;;;;;;;;;4884556;29;20192;-84
2023/06/11 17:00:29;;;;;;;5.82;4.00;;;;;;;;;;4904848;23;20584;-84
2023/06/11 17:02:55;;;;;;;5.00;3.65;;;;;;;;;;4905418;29;20036;-87
2023/06/11 17:05:21;;;;;;;9.77;4.15;;;;;;;;;;4912817;29;20095;-86
2023/06/11 17:07:52;;;;;;;6.30;4.40;;;;;;;;;;4909646;29;20025;-87
2023/06/11 17:10:19;;;;;;;6.32;4.18;;;;;;;;;;4927113;23;20112;-87
2023/06/11 17:12:45;;;;;;;7.60;4.30;;;;;;;;;;4917136;29;20036;-90
2023/06/11 17:15:14;;;;;;;7.35;3.83;;;;;;;;;;4904657;29;20043;-89
2023/06/11 17:17:40;;;;;;;8.75;4.13;;;;;;;;;;4931001;29;20450;-88
2023/06/11 17:20:06;;;;;;;6.80;3.85;;;;;;;;;;4902057;29;20013;-87
2023/06/11 17:22:35;;;;;;;5.78;3.80;;;;;;;;;;4910584;29;20100;-86
2023/06/11 17:25:01;;;;;;;5.93;3.67;;;;;;;;;;4898479;29;20031;-92
2023/06/11 17:58:24;;;;;;;8.52;4.47;;;;;;;;;;4899146;29;20110;-85
2023/06/11 18:05:13;;;;;;;5.60;3.83;;;28.70;55.20;;;;;;4880803;29;20031;-83
2023/06/11 18:17:11;;;;;;;8.23;3.72;;;;;;;;;;4879059;29;20044;-83
2023/06/11 18:20:07;;;;;;;;;;;;;;;;;;;;;
2023/06/11 18:25:40;;;;;;;6.10;4.30;;;;;;;;;;4887006;29;20036;-84
2023/06/11 23:26:26;;;;;;;8.00;5.90;;;;;;;;;;3647822;23;20327;-82
2023/06/11 23:28:54;;;;;;;11.15;6.60;;;;;;;;;;4895840;29;20497;-79
2023/06/11 23:31:21;;;;;;;9.77;6.07;;;;;;;;;;4878626;29;20052;-80
2023/06/11 23:33:49;;;;;;;7.80;5.90;;;;;;;;;;4878457;29;20021;-80
2023/06/11 23:36:20;;;;;;;8.65;5.50;;;;;;;;;;4881153;29;20045;-80
2023/06/11 23:38:46;;;;;;;10.43;7.43;;;;;;;;;;4874414;29;20128;-79
2023/06/11 23:41:45;;;;;;;10.10;5.78;;;;;;;;;;4888070;29;20033;-83
2023/06/11 23:44:18;;;;;;;7.25;5.35;;;;;;;;;;4881451;29;20021;-80
2023/06/11 23:46:47;;;;;;;7.13;5.50;;;;;;;;;;4883924;29;20032;-81
2023/06/11 23:49:13;;;;;;;7.32;5.35;;;;;;;;;;4889207;29;20067;-80
2023/06/11 23:51:40;;;;;;;7.50;5.53;;;;;;;;;;4877749;29;20119;-79
2023/06/11 23:54:07;;;;;;;7.60;5.50;;;;;;;;;;4880751;29;20392;-80
2023/06/11 23:56:34;;;;;;;7.10;5.10;;;;;;;;;;4880705;29;20060;-78
2023/06/11 23:59:02;;;;;;;8.20;5.57;;;;;;;;;;4877721;29;20021;-81
